createdAt,value
2022-10-21T00:02:04.744Z,23.40
2022-10-21T00:04:50.775Z,23.03
2022-10-21T00:07:36.774Z,24.53
2022-10-21T00:10:22.677Z,21.57
2022-10-21T00:13:09.013Z,20.87
2022-10-21T00:16:08.922Z,21.23
2022-10-21T00:18:55.017Z,20.73
2022-10-21T00:21:41.124Z,19.80
2022-10-21T00:24:27.151Z,22.73
2022-10-21T00:27:13.238Z,20.13
2022-10-21T00:29:58.945Z,19.67
2022-10-21T00:32:44.965Z,20.30
2022-10-21T00:35:33.416Z,22.10
2022-10-21T00:41:11.379Z,22.70
2022-10-21T00:43:57.334Z,22.50
2022-10-21T00:46:43.385Z,22.60
2022-10-21T00:49:29.199Z,21.57
2022-10-21T00:52:20.157Z,21.13
2022-10-21T00:55:06.331Z,21.87
2022-10-21T00:57:53.628Z,22.13
2022-10-21T01:00:39.910Z,23.00
2022-10-21T01:03:27.470Z,22.50
2022-10-21T01:06:14.456Z,21.67
2022-10-21T01:09:00.376Z,21.77
2022-10-21T01:11:47.789Z,21.80
2022-10-21T01:14:53.455Z,22.60
2022-10-21T01:18:04.778Z,21.33
2022-10-21T01:21:02.211Z,23.13
2022-10-21T01:23:54.309Z,22.70
2022-10-21T01:26:58.784Z,21.57
2022-10-21T01:30:05.476Z,22.10
2022-10-21T01:33:23.929Z,23.60
2022-10-21T01:36:19.028Z,20.20
2022-10-21T01:39:11.111Z,22.70
2022-10-21T01:41:56.944Z,20.77
2022-10-21T01:45:03.191Z,22.90
2022-10-21T01:47:55.139Z,21.53
2022-10-21T01:50:45.146Z,21.30
2022-10-21T01:53:34.213Z,20.83
2022-10-21T01:56:21.084Z,20.53
2022-10-21T01:59:08.954Z,20.30
2022-10-21T02:01:55.601Z,23.13
2022-10-21T02:04:42.830Z,21.20
2022-10-21T02:07:30.156Z,21.17
2022-10-21T02:10:19.562Z,20.90
2022-10-21T02:13:09.650Z,20.57
2022-10-21T02:15:57.042Z,19.27
2022-10-21T02:18:42.882Z,20.13
2022-10-21T02:21:32.212Z,19.63
2022-10-21T02:24:24.893Z,19.60
2022-10-21T02:27:10.790Z,20.97
2022-10-21T02:29:57.773Z,18.47
2022-10-21T02:32:48.755Z,18.87
2022-10-21T02:35:54.531Z,18.90
2022-10-21T02:38:48.544Z,19.60
2022-10-21T02:41:34.921Z,19.93
2022-10-21T02:44:21.538Z,20.90
2022-10-21T02:47:07.112Z,20.13
2022-10-21T02:49:53.005Z,19.70
2022-10-21T02:52:38.488Z,18.30
2022-10-21T02:55:24.412Z,20.23
2022-10-21T02:58:10.322Z,19.60
2022-10-21T03:00:57.120Z,19.73
2022-10-21T03:03:42.654Z,20.27
2022-10-21T03:06:28.548Z,18.60
2022-10-21T03:09:14.192Z,19.30
2022-10-21T03:11:59.752Z,19.70
2022-10-21T03:14:45.594Z,19.37
2022-10-21T03:17:31.209Z,19.90
2022-10-21T03:20:17.155Z,18.47
2022-10-21T03:23:03.527Z,18.90
2022-10-21T03:25:49.166Z,20.10
2022-10-21T03:28:39.478Z,19.70
2022-10-21T03:31:25.012Z,17.80
2022-10-21T03:34:10.752Z,19.13
2022-10-21T03:36:57.493Z,20.27
2022-10-21T03:39:43.318Z,19.70
2022-10-21T03:42:29.252Z,20.47
2022-10-21T03:45:16.431Z,19.33
2022-10-21T03:48:02.437Z,18.77
2022-10-21T03:50:48.236Z,18.67
2022-10-21T03:53:49.088Z,20.50
2022-10-21T03:56:35.128Z,19.30
2022-10-21T03:59:21.004Z,18.30
2022-10-21T04:02:06.832Z,20.17
2022-10-21T04:04:52.587Z,19.27
2022-10-21T04:07:39.788Z,18.03
2022-10-21T04:10:25.602Z,19.27
2022-10-21T04:13:11.465Z,18.63
2022-10-21T04:16:01.625Z,20.53
2022-10-21T04:18:47.371Z,19.73
2022-10-21T04:21:33.318Z,19.47
2022-10-21T04:24:18.834Z,22.10
2022-10-21T04:27:04.768Z,23.07
2022-10-21T04:29:51.962Z,20.60
2022-10-21T04:32:38.337Z,20.27
2022-10-21T04:35:24.358Z,19.23
2022-10-21T04:38:10.165Z,19.73
2022-10-21T04:40:59.990Z,20.70
2022-10-21T04:43:45.551Z,20.13
2022-10-21T04:46:31.286Z,19.30
2022-10-21T04:49:17.179Z,18.70
2022-10-21T04:52:02.750Z,20.00
2022-10-21T04:54:48.396Z,20.40
2022-10-21T04:57:34.410Z,21.97
2022-10-21T05:00:20.340Z,20.40
2022-10-21T05:03:05.981Z,20.87
2022-10-21T05:05:52.597Z,21.20
2022-10-21T05:08:38.392Z,21.50
2022-10-21T05:11:24.107Z,23.67
2022-10-21T05:14:09.820Z,20.10
2022-10-21T05:16:55.375Z,21.87
2022-10-21T05:19:41.014Z,21.23
2022-10-21T05:22:26.612Z,23.00
2022-10-21T05:25:12.586Z,22.90
2022-10-21T05:27:58.074Z,20.53
2022-10-21T05:30:44.141Z,21.83
2022-10-21T05:33:30.488Z,19.07
2022-10-21T05:36:17.601Z,20.77
2022-10-21T05:39:11.157Z,19.93
2022-10-21T05:41:56.756Z,19.93
2022-10-21T05:44:42.773Z,22.07
2022-10-21T05:47:28.743Z,21.40
2022-10-21T05:50:14.227Z,24.40
2022-10-21T05:52:59.854Z,31.93
2022-10-21T05:55:54.986Z,24.97
2022-10-21T05:58:40.585Z,21.37
2022-10-21T06:01:26.228Z,22.57
2022-10-21T06:04:12.383Z,22.93
2022-10-21T06:09:49.189Z,20.60
2022-10-21T06:12:34.670Z,20.07
2022-10-21T06:15:20.554Z,22.50
2022-10-21T06:18:06.565Z,21.30
2022-10-21T06:20:52.588Z,19.67
2022-10-21T06:23:38.993Z,19.97
2022-10-21T06:26:24.898Z,19.27
2022-10-21T06:29:10.641Z,19.70
2022-10-21T06:31:58.483Z,18.37
2022-10-21T06:34:44.091Z,16.13
2022-10-21T06:37:29.701Z,17.60
2022-10-21T06:40:15.284Z,17.17
2022-10-21T06:43:01.184Z,15.77
2022-10-21T06:45:47.002Z,15.50
2022-10-21T06:48:33.053Z,17.83
2022-10-21T06:51:22.888Z,18.87
2022-10-21T06:54:08.826Z,16.47
2022-10-21T06:56:54.674Z,17.17
2022-10-21T06:59:41.765Z,15.43
2022-10-21T07:02:27.681Z,17.93
2022-10-21T07:05:13.200Z,18.20
2022-10-21T07:07:59.497Z,19.60
2022-10-21T07:10:45.969Z,15.57
2022-10-21T07:13:31.812Z,16.03
2022-10-21T07:16:28.185Z,15.17
2022-10-21T07:19:14.117Z,14.73
2022-10-21T07:21:59.804Z,15.27
2022-10-21T07:24:45.482Z,14.33
2022-10-21T07:27:31.441Z,14.40
2022-10-21T07:30:17.329Z,14.33
2022-10-21T07:33:03.119Z,13.50
2022-10-21T07:35:48.918Z,15.00
2022-10-21T07:38:34.896Z,13.90
2022-10-21T07:41:25.977Z,14.40
2022-10-21T07:44:12.025Z,14.90
2022-10-21T07:46:57.493Z,13.00
2022-10-21T07:49:43.326Z,16.00
2022-10-21T07:52:29.205Z,14.07
2022-10-21T07:55:15.963Z,14.40
2022-10-21T07:58:02.812Z,14.37
2022-10-21T08:00:48.859Z,16.27
2022-10-21T08:03:34.728Z,16.17
2022-10-21T08:06:20.625Z,13.80
2022-10-21T08:09:06.515Z,14.00
2022-10-21T08:11:52.563Z,13.00
2022-10-21T08:14:38.175Z,11.97
2022-10-21T08:17:24.904Z,12.80
2022-10-21T08:20:11.084Z,12.47
2022-10-21T08:22:56.804Z,13.17
2022-10-21T08:25:48.717Z,13.77
2022-10-21T08:28:34.543Z,14.93
2022-10-21T08:31:21.225Z,13.30
2022-10-21T08:34:07.252Z,13.40
2022-10-21T08:36:52.883Z,14.53
2022-10-21T08:39:38.798Z,13.53
2022-10-21T08:42:26.219Z,13.50
2022-10-21T08:45:26.997Z,15.70
2022-10-21T08:48:17.212Z,14.97
2022-10-21T08:51:04.991Z,16.47
2022-10-21T08:53:53.911Z,14.63
2022-10-21T08:56:39.866Z,14.47
2022-10-21T08:59:26.518Z,14.40
2022-10-21T09:02:31.377Z,15.10
2022-10-21T09:05:17.138Z,12.77
2022-10-21T09:08:03.052Z,14.53
2022-10-21T09:10:58.472Z,18.27
2022-10-21T09:13:53.454Z,14.60
2022-10-21T09:16:48.016Z,15.90
2022-10-21T09:19:43.625Z,15.43
2022-10-21T09:22:35.644Z,14.47
2022-10-21T09:25:33.367Z,14.23
2022-10-21T09:28:19.407Z,13.67
2022-10-21T09:31:13.557Z,13.47
2022-10-21T09:34:02.067Z,14.97
2022-10-21T09:36:48.830Z,13.63
2022-10-21T09:39:42.877Z,14.87
2022-10-21T09:42:46.254Z,15.67
2022-10-21T09:45:37.514Z,17.23
2022-10-21T09:48:41.787Z,14.27
2022-10-21T09:51:40.285Z,14.97
2022-10-21T09:54:28.579Z,13.53
2022-10-21T09:57:16.196Z,12.90
2022-10-21T10:00:05.244Z,12.73
2022-10-21T10:02:56.731Z,14.07
2022-10-21T10:05:46.694Z,13.17
2022-10-21T10:08:38.274Z,13.50
2022-10-21T10:11:24.033Z,12.70
2022-10-21T10:14:32.197Z,12.07
2022-10-21T10:17:24.172Z,13.10
2022-10-21T10:20:13.815Z,11.40
2022-10-21T10:22:59.754Z,10.57
2022-10-21T10:25:49.858Z,11.60
2022-10-21T10:28:35.403Z,10.57
2022-10-21T10:31:25.403Z,9.70
2022-10-21T10:34:18.855Z,9.40
2022-10-21T10:37:16.670Z,9.27
2022-10-21T10:40:04.930Z,8.17
2022-10-21T10:42:51.896Z,8.30
2022-10-21T10:45:37.894Z,7.87
2022-10-21T10:48:27.567Z,7.20
2022-10-21T10:51:48.869Z,7.33
2022-10-21T10:54:35.167Z,7.20
2022-10-21T10:57:29.968Z,7.33
2022-10-21T11:00:24.722Z,6.80
2022-10-21T11:03:14.461Z,6.43
2022-10-21T11:06:08.639Z,5.90
2022-10-21T11:08:59.082Z,5.60
2022-10-21T11:11:46.972Z,6.10
2022-10-21T11:14:32.565Z,6.00
2022-10-21T11:17:20.497Z,5.40
2022-10-21T11:20:20.889Z,5.80
2022-10-21T11:23:20.526Z,5.50
2022-10-21T11:26:20.207Z,5.30
2022-10-21T11:29:16.188Z,5.67
2022-10-21T11:32:12.225Z,6.87
2022-10-21T11:35:24.632Z,5.47
2022-10-21T11:38:13.263Z,6.57
2022-10-21T11:40:59.090Z,8.90
2022-10-21T11:43:50.322Z,6.40
2022-10-21T11:46:43.744Z,7.43
2022-10-21T11:49:37.284Z,8.43
2022-10-21T11:52:29.335Z,6.73
2022-10-21T11:55:38.762Z,6.00
2022-10-21T11:58:33.826Z,6.87
2022-10-21T12:01:27.993Z,6.60
2022-10-21T12:04:29.614Z,7.10
2022-10-21T12:07:25.529Z,6.50
2022-10-21T12:10:30.787Z,6.53
2022-10-21T12:13:32.229Z,7.20
2022-10-21T12:16:21.242Z,6.20
2022-10-21T12:19:11.036Z,5.73
2022-10-21T12:21:56.740Z,5.73
2022-10-21T12:24:47.006Z,5.90
2022-10-21T12:27:39.116Z,5.40
2022-10-21T12:30:28.020Z,5.43
2022-10-21T12:33:19.458Z,5.00
2022-10-21T12:36:18.155Z,4.93
2022-10-21T12:39:04.233Z,4.70
2022-10-21T12:42:04.317Z,5.10
2022-10-21T12:44:51.462Z,5.00
2022-10-21T12:47:45.338Z,4.80
2022-10-21T12:50:39.228Z,4.40
2022-10-21T12:53:37.907Z,4.10
2022-10-21T12:56:30.524Z,3.70
2022-10-21T12:59:27.124Z,3.63
2022-10-21T13:02:24.028Z,3.20
2022-10-21T13:05:09.669Z,3.10
2022-10-21T13:08:15.567Z,3.10
2022-10-21T13:11:07.319Z,3.03
2022-10-21T13:14:11.853Z,2.87
2022-10-21T13:17:14.462Z,3.50
2022-10-21T13:20:15.766Z,2.77
2022-10-21T13:23:21.084Z,2.63
2022-10-21T13:26:13.416Z,3.00
2022-10-21T13:29:01.215Z,3.03
2022-10-21T13:31:47.266Z,3.00
2022-10-21T13:34:40.168Z,3.13
2022-10-21T13:37:39.753Z,3.10
2022-10-21T13:40:32.461Z,3.50
2022-10-21T13:43:24.423Z,3.37
2022-10-21T13:46:16.289Z,2.77
2022-10-21T13:49:02.296Z,3.53
2022-10-21T13:51:48.222Z,3.30
2022-10-21T13:54:35.512Z,3.10
2022-10-21T13:57:21.274Z,3.80
2022-10-21T14:00:17.810Z,3.90
2022-10-21T14:03:05.070Z,3.77
2022-10-21T14:05:51.970Z,4.77
2022-10-21T14:08:42.936Z,4.60
2022-10-21T14:11:33.486Z,4.67
2022-10-21T14:14:23.740Z,4.30
2022-10-21T14:17:16.348Z,4.50
2022-10-21T14:20:07.616Z,4.40
2022-10-21T14:22:54.652Z,4.17
2022-10-21T14:25:41.074Z,5.33
2022-10-21T14:28:27.176Z,5.30
2022-10-21T14:31:14.870Z,5.23
2022-10-21T14:34:00.847Z,5.40
2022-10-21T14:37:06.751Z,4.93
2022-10-21T14:40:09.637Z,4.40
2022-10-21T14:42:55.942Z,5.83
2022-10-21T14:45:46.235Z,5.10
2022-10-21T14:48:33.962Z,4.90
2022-10-21T14:51:22.508Z,5.50
2022-10-21T14:54:21.323Z,5.40
2022-10-21T14:57:06.744Z,4.80
2022-10-21T14:59:53.512Z,4.77
2022-10-21T15:02:39.616Z,4.57
2022-10-21T15:05:49.175Z,4.50
2022-10-21T15:08:35.078Z,4.67
2022-10-21T15:11:30.586Z,5.27
2022-10-21T15:14:22.281Z,4.33
2022-10-21T15:17:10.597Z,6.80
2022-10-21T15:19:56.585Z,4.90
2022-10-21T15:22:43.577Z,4.13
2022-10-21T15:25:30.162Z,4.67
2022-10-21T15:28:18.746Z,3.50
2022-10-21T15:31:05.734Z,5.20
2022-10-21T15:33:54.460Z,3.70
2022-10-21T15:36:40.159Z,3.73
2022-10-21T15:39:26.291Z,3.73
2022-10-21T15:42:15.244Z,4.00
2022-10-21T15:45:02.158Z,6.00
2022-10-21T15:47:52.442Z,4.00
2022-10-21T15:50:42.730Z,4.00
2022-10-21T15:53:28.418Z,4.27
2022-10-21T15:56:15.091Z,5.10
2022-10-21T15:59:00.844Z,4.03
2022-10-21T16:01:47.414Z,3.90
2022-10-21T16:04:33.366Z,5.00
2022-10-21T16:07:36.806Z,4.50
2022-10-21T16:10:27.455Z,5.03
2022-10-21T16:13:13.251Z,4.90
2022-10-21T16:15:58.979Z,4.23
2022-10-21T16:18:44.546Z,4.80
2022-10-21T16:21:30.487Z,4.63
2022-10-21T16:24:16.380Z,5.67
2022-10-21T16:27:02.315Z,4.50
2022-10-21T16:29:48.144Z,4.73
2022-10-21T16:32:34.418Z,4.80
2022-10-21T16:35:21.111Z,5.63
2022-10-21T16:38:09.641Z,5.30
2022-10-21T16:40:55.694Z,5.20
2022-10-21T16:43:41.558Z,4.67
2022-10-21T16:46:27.715Z,7.00
2022-10-21T16:49:14.432Z,5.40
2022-10-21T16:52:02.188Z,6.37
2022-10-21T16:54:48.871Z,6.30
2022-10-21T16:57:34.762Z,6.87
2022-10-21T17:00:20.773Z,5.73
2022-10-21T17:03:07.545Z,5.77
2022-10-21T17:05:57.768Z,6.40
2022-10-21T17:08:43.779Z,6.10
2022-10-21T17:11:38.970Z,6.80
2022-10-21T17:14:24.738Z,6.73
2022-10-21T17:17:11.086Z,5.80
2022-10-21T17:19:56.901Z,6.50
2022-10-21T17:22:42.446Z,6.93
2022-10-21T17:25:31.112Z,6.83
2022-10-21T17:28:18.066Z,6.50
2022-10-21T17:31:03.551Z,6.23
2022-10-21T17:33:51.660Z,5.63
2022-10-21T17:36:38.109Z,6.70
2022-10-21T17:39:23.877Z,6.10
2022-10-21T17:42:10.296Z,5.80
2022-10-21T17:44:57.215Z,6.27
2022-10-21T17:47:43.362Z,6.23
2022-10-21T17:50:28.976Z,5.90
2022-10-21T17:53:14.820Z,6.37
2022-10-21T17:56:02.553Z,5.90
2022-10-21T17:58:55.919Z,6.10
2022-10-21T18:01:41.941Z,6.43
2022-10-21T18:04:28.553Z,6.30
2022-10-21T18:07:17.721Z,6.10
2022-10-21T18:10:05.611Z,5.67
2022-10-21T18:12:51.482Z,6.13
2022-10-21T18:15:40.237Z,5.83
2022-10-21T18:18:25.751Z,5.47
2022-10-21T18:21:12.991Z,5.33
2022-10-21T18:23:59.639Z,6.40
2022-10-21T18:26:45.500Z,5.20
2022-10-21T18:29:31.390Z,6.30
2022-10-21T18:32:17.239Z,6.30
2022-10-21T18:35:06.133Z,6.13
2022-10-21T18:37:52.312Z,6.27
2022-10-21T18:40:47.117Z,6.30
2022-10-21T18:43:45.669Z,6.50
2022-10-21T18:46:32.468Z,5.90
2022-10-21T18:49:18.375Z,7.10
2022-10-21T18:52:04.751Z,5.87
2022-10-21T18:54:52.252Z,7.47
2022-10-21T18:57:38.327Z,5.20
2022-10-21T19:00:24.675Z,6.80
2022-10-21T19:03:10.418Z,7.10
2022-10-21T19:05:56.459Z,7.00
2022-10-21T19:08:42.236Z,5.80
2022-10-21T19:11:29.949Z,5.80
2022-10-21T19:14:16.270Z,6.47
2022-10-21T19:17:02.376Z,6.43
2022-10-21T19:19:48.225Z,5.40
2022-10-21T19:22:34.152Z,6.63
2022-10-21T19:25:19.989Z,6.20
2022-10-21T19:28:05.820Z,6.50
2022-10-21T19:30:55.207Z,7.00
2022-10-21T19:33:41.060Z,6.27
2022-10-21T19:36:26.933Z,6.70
2022-10-21T19:39:13.011Z,5.90
2022-10-21T19:41:59.745Z,5.13
2022-10-21T19:44:45.735Z,5.30
2022-10-21T19:47:31.255Z,4.37
2022-10-21T19:50:17.677Z,6.10
2022-10-21T19:53:03.662Z,5.43
2022-10-21T19:55:49.411Z,5.13
2022-10-21T19:58:36.336Z,6.27
2022-10-21T20:01:24.151Z,6.87
2022-10-21T20:04:09.993Z,5.43
2022-10-21T20:06:56.945Z,4.77
2022-10-21T20:09:42.572Z,5.77
2022-10-21T20:12:28.836Z,4.87
2022-10-21T20:15:14.426Z,4.90
2022-10-21T20:18:00.470Z,4.63
2022-10-21T20:20:47.455Z,5.00
2022-10-21T20:23:33.249Z,5.30
2022-10-21T20:26:19.631Z,5.03
2022-10-21T20:29:05.138Z,5.37
2022-10-21T20:31:50.965Z,5.53
2022-10-21T20:34:37.827Z,5.20
2022-10-21T20:37:23.476Z,5.03
2022-10-21T20:40:09.897Z,5.60
2022-10-21T20:42:55.956Z,4.67
2022-10-21T20:45:41.958Z,5.60
2022-10-21T20:48:29.013Z,5.23
2022-10-21T20:51:16.153Z,11.20
2022-10-21T20:54:03.605Z,4.87
2022-10-21T20:56:49.561Z,6.50
2022-10-21T20:59:35.661Z,5.13
2022-10-21T21:02:21.418Z,5.20
2022-10-21T21:05:07.640Z,5.17
2022-10-21T21:07:53.411Z,6.37
2022-10-21T21:10:39.778Z,5.63
2022-10-21T21:13:25.369Z,6.20
2022-10-21T21:16:21.937Z,5.37
2022-10-21T21:19:08.632Z,4.80
2022-10-21T21:22:00.164Z,5.40
2022-10-21T21:24:46.054Z,5.60
2022-10-21T21:27:32.321Z,5.13
2022-10-21T21:30:18.145Z,5.30
2022-10-21T21:33:04.068Z,5.30
2022-10-21T21:35:49.879Z,7.00
2022-10-21T21:38:35.841Z,8.17
2022-10-21T21:41:22.319Z,8.07
2022-10-21T21:44:08.873Z,6.80
2022-10-21T21:46:54.695Z,6.57
2022-10-21T21:49:40.687Z,5.37
2022-10-21T21:52:26.886Z,6.60
2022-10-21T21:55:12.777Z,5.00
2022-10-21T21:57:58.456Z,6.37
2022-10-21T22:00:44.238Z,6.17
2022-10-21T22:03:30.483Z,6.13
2022-10-21T22:06:20.546Z,6.17
2022-10-21T22:09:11.916Z,6.97
2022-10-21T22:11:58.196Z,6.93
2022-10-21T22:14:44.943Z,9.30
2022-10-21T22:17:31.018Z,8.20
2022-10-21T22:20:17.285Z,8.73
2022-10-21T22:23:03.466Z,8.43
2022-10-21T22:25:49.562Z,8.00
2022-10-21T22:28:36.638Z,8.53
2022-10-21T22:31:27.430Z,9.03
2022-10-21T22:34:16.530Z,8.90
2022-10-21T22:37:04.947Z,8.37
2022-10-21T22:39:52.031Z,9.43
2022-10-21T22:42:37.876Z,10.43
2022-10-21T22:45:23.717Z,8.77
2022-10-21T22:48:09.663Z,9.90
2022-10-21T22:50:56.187Z,10.23
2022-10-21T22:53:43.834Z,9.30
2022-10-21T22:56:29.445Z,8.73
2022-10-21T22:59:15.559Z,8.00
2022-10-21T23:02:01.630Z,10.50
2022-10-21T23:04:48.274Z,8.63
2022-10-21T23:07:34.495Z,8.80
2022-10-21T23:10:20.383Z,9.73
2022-10-21T23:13:08.187Z,9.30
2022-10-21T23:15:54.630Z,8.63
2022-10-21T23:18:40.714Z,8.90
2022-10-21T23:21:27.253Z,9.27
2022-10-21T23:24:13.420Z,8.87
2022-10-21T23:27:01.326Z,10.63
2022-10-21T23:29:47.458Z,10.80
2022-10-21T23:32:33.628Z,9.40
2022-10-21T23:35:20.512Z,9.90
2022-10-21T23:38:08.028Z,10.10
2022-10-21T23:40:53.785Z,9.10
2022-10-21T23:43:39.687Z,9.80
2022-10-21T23:49:16.682Z,10.10
2022-10-21T23:52:02.461Z,9.80
2022-10-21T23:54:48.767Z,9.67
2022-10-21T23:57:35.621Z,12.00
